Archival Weather

Chicago O'Hare International

Chicago, Illinois (KORD)

Report from: Sunday, March 6, 2022 7:51 AM CST
Current time: Saturday, February 4, 2023 10:58 PM CST

Current weather
Weather history
Weather forecast

Temperature2.2°C (36.0°F)
Wind chill-4.2°C (24.4°F)
Dew point-2.2°C (28.0°F)
Winds 20 kts (10.3 m/s, 23 mph) West-Southwest (250°)
Wind gusts 36 kts (18.5 m/s, 41.4 mph)
Peak wind 42 kts (21.6 m/s, 48.3 mph) West-Southwest (240°) at 07:12
Visibility10 mi. (16.1 km)
Clouds Ceiling: Overcast 1,800 ft. (549 m)
Altimeter29.88 in.Hg (1012 mB)
Relative humidity73 %
Density altitude-1,428 ft. (-435 m)
Sea-level pressure101.2 kPa (1012 mB, 29.88 in.Hg)
Remarks System requires maintenance
Automated weather observing station with precipitation discriminator
Flight conditions Marginal Visual Meteorological Conditions
Raw dataKORD 061351Z 25020G36KT 10SM OVC018 02/M02 A2988 RMK AO2 PK WND 24042/1312 SLP119 T00221022 $
An unhandled exception has occurred. See browser dev tools for details. Reload 🗙